KCLL

Easterwood Airport

Airport
ICAO code
KCLL
IATA Code
CLL
Summary
ICAO Region
NAM
ICAO Territory
Location

College Station, Texas

Serving
Bryan-College Station
Elevation
321 ft
Coordinates
30° 35' 37" N , 96° 21' 59" W
KCC
Metar
KCLL 201916Z 08009G16KT 10SM SCT031 SCT041 32/24 A3010 RMK AO2 T03170239

Easterwood Airport, also known as Easterwood Field, is a public use, regional airport serving Texas A&M University, Bryan-College Station and Brazos County, located 3 nm southwest of College Station, Texas, USA.

Airport map

Aerial View

SKYbrary Partners:

Safety knowledge contributed by: